Artesia, New Mexico
Current Conditions -  °F | °C
As of 9:51 PM on Saturday 22 Nov 2014 (Local Time) from KROW Reporting Station
Clear Clear  
Wind Chill:   Ceiling: Unl
Heat Index:   Visibility: 10mi
Dew Point: -4°   Wind: 10mph
Humidity: 41%   Direction: 220°SW
Pressure: 29.76"   Gusts: NA
Location:  32.84°N, 104.39°W
Report Text: KROW 230451Z AUTO 22009KT 10SM CLR 08/M04 A2976 RMK AO2 SLP046 T00831044
Loading
Personal Weather Stations






























Interactive Weather Map New forecast layout! Learn more

10-Day Weather Forecast

Advertisements
Track Severe Weather on mobile